Time;durP1;ratioP1;P1;durP2;ratioP2;P2;SDS_P1;SDS_P2;PMS_P1;PMS_P2;Temp;Humidity;BMP_temperature;BMP_pressure;BME280_temperature;BME280_humidity;BME280_pressure;Samples;Min_cycle;Max_cycle;Signal;HPM_P1;HPM_P2
2022/11/11 05:32:44;;;;;;;8.45;7.72;;;5.90;99.90;;;;;;5040967;28;20211;-81
2022/11/11 05:35:12;;;;;;;10.90;7.47;;;5.90;99.90;;;;;;5043343;28;20860;-81
2022/11/11 05:37:39;;;;;;;8.07;7.38;;;5.90;99.90;;;;;;5043138;28;20205;-81
2022/11/11 05:40:07;;;;;;;7.50;6.80;;;5.90;99.90;;;;;;5043462;28;20222;-81
2022/11/11 05:42:34;;;;;;;8.23;7.40;;;5.90;99.90;;;;;;5044177;28;20213;-81
2022/11/11 05:45:01;;;;;;;8.10;7.40;;;5.90;99.90;;;;;;5043198;28;20206;-81
2022/11/11 05:47:28;;;;;;;8.60;7.60;;;5.90;99.90;;;;;;5044103;28;20226;-81
2022/11/11 05:49:56;;;;;;;7.68;6.90;;;5.90;99.90;;;;;;5042875;28;20201;-81
2022/11/11 05:52:23;;;;;;;7.47;6.78;;;5.90;99.90;;;;;;5043601;28;20202;-81
2022/11/11 05:54:49;;;;;;;7.97;7.38;;;5.80;99.90;;;;;;5042875;28;20199;-81
2022/11/11 05:57:16;;;;;;;7.30;6.63;;;5.80;99.90;;;;;;5043408;28;20216;-81
2022/11/11 05:59:43;;;;;;;7.40;6.70;;;5.80;99.90;;;;;;5042479;28;20230;-81
2022/11/11 06:02:10;;;;;;;8.35;6.80;;;5.80;99.90;;;;;;5042548;28;20231;-80
2022/11/11 06:04:37;;;;;;;9.48;7.35;;;5.80;99.90;;;;;;5041961;28;20663;-81
2022/11/11 06:07:05;;;;;;;7.75;6.93;;;5.70;99.90;;;;;;5042624;28;20572;-81
2022/11/11 06:09:32;;;;;;;7.45;6.60;;;5.70;99.90;;;;;;5042595;28;20710;-81
2022/11/11 06:11:59;;;;;;;8.43;7.50;;;5.70;99.90;;;;;;5042459;28;20240;-81
2022/11/11 06:14:26;;;;;;;8.68;6.28;;;5.70;99.90;;;;;;5042976;28;20227;-81
2022/11/11 06:16:52;;;;;;;7.15;6.60;;;5.70;99.90;;;;;;5041424;28;20198;-81
2022/11/11 06:19:19;;;;;;;7.30;6.80;;;5.70;99.90;;;;;;5040765;28;20221;-81
2022/11/11 06:21:59;;;;;;;7.60;6.90;;;5.70;99.90;;;;;;5025640;28;20237;-81
2022/11/11 06:24:27;;;;;;;9.05;7.55;;;5.70;99.90;;;;;;5041956;28;20587;-81
2022/11/11 06:26:53;;;;;;;9.27;8.30;;;5.70;99.90;;;;;;5041541;28;20228;-81
2022/11/11 06:29:20;;;;;;;8.30;7.22;;;5.70;99.90;;;;;;5041885;28;20233;-81
2022/11/11 06:31:47;;;;;;;8.82;8.13;;;5.60;99.90;;;;;;5041533;28;20244;-81
2022/11/11 06:34:14;;;;;;;9.23;8.25;;;5.60;99.90;;;;;;5040738;28;20582;-81
2022/11/11 06:36:40;;;;;;;9.80;7.40;;;5.60;99.90;;;;;;5039964;28;20226;-81
2022/11/11 06:39:07;;;;;;;8.57;7.78;;;5.60;99.90;;;;;;5042281;28;20352;-81
2022/11/11 06:41:36;;;;;;;8.48;6.63;;;5.60;99.90;;;;;;5042609;28;20230;-81
2022/11/11 06:44:02;;;;;;;10.55;6.30;;;5.60;99.90;;;;;;5041852;28;20678;-81
2022/11/11 06:46:30;;;;;;;11.05;10.02;;;5.60;99.90;;;;;;5039586;28;20213;-81
2022/11/11 06:48:56;;;;;;;9.07;8.25;;;5.60;99.90;;;;;;5040058;28;20198;-81
2022/11/11 06:51:23;;;;;;;8.43;7.38;;;5.60;99.90;;;;;;5040374;28;20226;-81
2022/11/11 06:53:50;;;;;;;8.13;7.32;;;5.70;99.90;;;;;;5040110;28;20202;-81
2022/11/11 06:56:17;;;;;;;8.60;7.85;;;5.70;99.90;;;;;;5041115;28;20293;-81
2022/11/11 06:58:45;;;;;;;11.00;7.90;;;5.70;99.90;;;;;;5040222;28;20205;-81
2022/11/11 07:01:13;;;;;;;7.70;7.00;;;5.70;99.90;;;;;;5040921;28;20280;-81
2022/11/11 07:03:40;;;;;;;8.35;7.65;;;5.80;99.90;;;;;;5040941;28;20194;-81
2022/11/11 07:06:07;;;;;;;8.73;7.60;;;5.80;99.90;;;;;;5040705;28;20208;-82
2022/11/11 07:08:34;;;;;;;8.80;7.95;;;5.80;99.90;;;;;;5040349;28;20207;-81
2022/11/11 07:11:01;;;;;;;11.48;9.40;;;5.80;99.90;;;;;;5038718;28;20222;-81
2022/11/11 07:13:27;;;;;;;9.30;8.50;;;5.80;99.90;;;;;;5035296;28;20240;-82
2022/11/11 07:15:55;;;;;;;8.18;7.47;;;5.80;99.90;;;;;;5038112;28;20216;-82
2022/11/11 07:18:22;;;;;;;8.88;8.05;;;5.90;99.90;;;;;;5038055;28;20209;-82
2022/11/11 07:20:49;;;;;;;8.00;7.25;;;5.90;99.90;;;;;;5041166;28;20234;-81
2022/11/11 07:23:16;;;;;;;8.75;7.82;;;6.00;99.90;;;;;;5043518;28;20209;-82
2022/11/11 07:25:44;;;;;;;8.02;7.43;;;6.00;99.90;;;;;;5041826;28;20203;-83
2022/11/11 07:28:10;;;;;;;8.70;8.05;;;6.10;99.90;;;;;;5040468;28;20626;-84
2022/11/11 07:30:44;;;;;;;8.55;7.82;;;6.20;99.90;;;;;;5039737;28;20246;-84
2022/11/11 07:33:22;;;;;;;24.77;8.52;;;6.20;99.90;;;;;;5040287;28;20214;-85
2022/11/11 07:35:53;;;;;;;14.05;7.95;;;6.30;99.90;;;;;;5040308;28;20214;-84
2022/11/11 07:38:24;;;;;;;10.60;9.18;;;6.20;99.90;;;;;;5039814;28;20234;-84
2022/11/11 07:40:53;;;;;;;11.82;9.02;;;6.20;99.90;;;;;;5041587;28;20659;-84
2022/11/11 07:43:48;;;;;;;8.95;7.38;;;6.20;99.90;;;;;;5037536;28;20566;-84
2022/11/11 07:46:14;;;;;;;9.05;7.93;;;6.20;99.90;;;;;;5038450;28;20211;-80
2022/11/11 07:48:42;;;;;;;7.95;7.15;;;6.20;99.90;;;;;;5043677;28;20216;-80
2022/11/11 07:51:09;;;;;;;7.13;6.50;;;6.20;99.90;;;;;;5046053;28;20240;-81
2022/11/11 07:53:36;;;;;;;10.13;8.20;;;6.30;99.90;;;;;;5043767;28;20964;-81
2022/11/11 07:56:03;;;;;;;7.80;7.30;;;6.40;99.90;;;;;;5039918;28;20206;-84
2022/11/11 07:58:31;;;;;;;9.35;8.18;;;6.50;99.90;;;;;;5041183;28;20198;-84
2022/11/11 08:00:59;;;;;;;9.93;8.93;;;6.70;99.90;;;;;;5042187;28;20226;-81
2022/11/11 08:03:26;;;;;;;12.30;9.50;;;6.80;99.90;;;;;;5045732;28;20205;-81
2022/11/11 08:05:55;;;;;;;9.80;8.55;;;6.90;99.90;;;;;;5044009;28;20202;-81
2022/11/11 08:08:25;;;;;;;10.90;10.10;;;6.90;99.90;;;;;;5046182;28;20217;-81
2022/11/11 08:10:54;;;;;;;9.27;8.55;;;7.00;99.90;;;;;;5047439;28;20215;-81
2022/11/11 08:16:05;;;;;;;9.23;8.32;;;7.20;99.90;;;;;;5045935;28;20218;-81
2022/11/11 08:18:32;;;;;;;9.93;8.25;;;7.20;99.90;;;;;;5047803;28;20242;-81
2022/11/11 08:21:01;;;;;;;12.45;11.45;;;7.30;99.90;;;;;;5045650;28;20230;-81
2022/11/11 08:23:32;;;;;;;15.25;13.85;;;7.40;99.90;;;;;;5048058;28;20207;-81
2022/11/11 08:25:59;;;;;;;13.52;11.63;;;7.50;99.90;;;;;;5046128;28;20222;-81
2022/11/11 08:28:26;;;;;;;14.98;12.23;;;7.60;99.90;;;;;;5047893;28;20207;-81
2022/11/11 08:30:53;;;;;;;11.90;8.65;;;7.70;99.90;;;;;;5044547;28;20603;-81
2022/11/11 08:33:20;;;;;;;7.90;7.20;;;7.80;99.90;;;;;;5046477;28;20210;-81
2022/11/11 08:35:47;;;;;;;9.18;8.27;;;8.00;99.90;;;;;;5047328;28;20221;-81
2022/11/11 08:38:17;;;;;;;9.45;8.52;;;8.10;99.90;;;;;;5047237;28;20211;-81
2022/11/11 08:40:44;;;;;;;8.32;7.47;;;8.20;99.90;;;;;;5046024;28;20235;-81
2022/11/11 08:43:10;;;;;;;9.80;7.78;;;8.30;99.90;;;;;;5046382;28;20275;-81
2022/11/11 08:45:37;;;;;;;11.10;9.90;;;8.30;99.90;;;;;;5046317;28;20211;-81
2022/11/11 08:48:05;;;;;;;12.13;10.93;;;8.40;99.90;;;;;;5045603;28;20211;-82
2022/11/11 08:50:32;;;;;;;13.68;11.80;;;8.50;99.90;;;;;;5045143;28;20227;-81
2022/11/11 08:52:58;;;;;;;13.35;10.85;;;8.60;99.90;;;;;;5046536;28;20305;-82
2022/11/11 08:55:26;;;;;;;13.27;11.50;;;8.70;99.90;;;;;;5047644;28;20214;-81
2022/11/11 08:57:58;;;;;;;11.68;10.55;;;8.80;99.90;;;;;;5046979;28;20211;-81
2022/11/11 09:00:25;;;;;;;12.52;11.20;;;8.90;99.90;;;;;;5046158;28;20243;-81
2022/11/11 09:02:52;;;;;;;11.88;10.35;;;9.00;99.90;;;;;;5047451;28;20214;-82
2022/11/11 09:05:19;;;;;;;17.23;11.90;;;9.10;99.90;;;;;;5046603;28;20216;-81
2022/11/11 09:07:46;;;;;;;16.15;10.45;;;9.20;99.90;;;;;;5044235;28;20212;-80
2022/11/11 09:10:13;;;;;;;8.95;8.15;;;9.30;99.90;;;;;;5043343;28;20237;-82
2022/11/11 09:12:41;;;;;;;10.25;8.30;;;9.40;99.90;;;;;;5042079;28;20687;-81
2022/11/11 09:15:08;;;;;;;9.10;8.30;;;9.40;99.90;;;;;;5044734;28;20594;-81
2022/11/11 09:17:35;;;;;;;8.68;6.68;;;9.50;99.90;;;;;;5043152;28;20460;-81
2022/11/11 09:20:01;;;;;;;8.30;6.43;;;9.60;99.90;;;;;;5028498;28;20208;-82
2022/11/11 09:22:29;;;;;;;8.23;6.75;;;9.70;99.90;;;;;;5018244;28;20581;-85
2022/11/11 09:32:01;;;;;;;6.63;5.95;;;10.00;99.90;;;;;;4966763;28;20243;-85
2022/11/11 09:34:28;;;;;;;7.67;6.53;;;10.10;99.90;;;;;;5010653;28;20224;-84
2022/11/11 09:36:56;;;;;;;6.75;6.25;;;10.20;99.90;;;;;;5029705;28;20472;-85
2022/11/11 09:39:24;;;;;;;7.33;6.63;;;10.30;99.90;;;;;;5035530;28;20219;-84
2022/11/11 09:42:28;;;;;;;7.45;6.75;;;10.40;99.90;;;;;;5037598;28;20502;-84
2022/11/11 09:45:11;;;;;;;7.13;6.40;;;10.50;99.90;;;;;;5033336;28;20210;-84
2022/11/11 09:47:45;;;;;;;7.60;6.80;;;10.60;99.90;;;;;;5040053;28;20461;-84
2022/11/11 09:50:15;;;;;;;8.97;6.80;;;10.70;99.90;;;;;;5040665;28;20472;-85
2022/11/11 09:53:01;;;;;;;6.17;5.77;;;10.80;99.90;;;;;;5040875;28;20797;-85
2022/11/11 09:55:31;;;;;;;8.33;4.67;;;11.00;99.90;;;;;;5037134;28;20558;-85
2022/11/11 09:58:04;;;;;;;8.13;6.30;;;11.20;99.90;;;;;;5038217;28;20432;-85
2022/11/11 10:00:35;;;;;;;9.73;5.50;;;11.40;99.90;;;;;;5018539;28;20495;-85
2022/11/11 10:03:12;;;;;;;7.27;5.53;;;11.60;99.90;;;;;;5032001;28;20457;-85
2022/11/11 10:05:43;;;;;;;5.30;4.80;;;11.70;99.90;;;;;;5037873;28;20456;-85
2022/11/11 10:08:16;;;;;;;4.23;3.90;;;11.90;99.90;;;;;;5036439;28;20445;-83
2022/11/11 10:10:45;;;;;;;6.00;5.50;;;12.00;99.90;;;;;;5038520;28;20472;-82
2022/11/11 10:13:15;;;;;;;6.17;5.50;;;12.20;99.90;;;;;;5039352;28;20456;-84
2022/11/11 10:15:52;;;;;;;5.73;4.60;;;12.40;99.90;;;;;;5052990;28;20456;-84
2022/11/11 10:41:54;;;;;;;4.63;4.23;;;14.50;99.90;;;;;;4958392;28;21225;-84
2022/11/11 10:44:42;;;;;;;6.10;4.20;;;14.90;99.90;;;;;;5006227;28;20493;-85
2022/11/11 10:47:14;;;;;;;4.10;3.80;;;15.50;99.90;;;;;;5037634;28;20538;-85
2022/11/11 10:49:49;;;;;;;4.70;4.30;;;16.20;99.90;;;;;;5035279;28;20456;-86
2022/11/11 10:52:21;;;;;;;4.60;4.20;;;17.00;99.90;;;;;;5036974;28;20452;-85
2022/11/11 10:55:40;;;;;;;5.30;4.00;;;17.90;99.90;;;;;;5037448;28;20458;-86
2022/11/11 10:58:15;;;;;;;4.00;3.23;;;18.90;97.90;;;;;;4993404;28;20478;-83
2022/11/11 11:01:02;;;;;;;10.43;3.87;;;19.40;94.30;;;;;;5031363;28;20492;-85
2022/11/11 11:03:33;;;;;;;4.17;3.57;;;19.90;93.50;;;;;;5034165;28;20449;-83
2022/11/11 11:06:06;;;;;;;4.47;4.07;;;20.20;93.60;;;;;;5040487;28;20456;-84
2022/11/11 11:18:45;;;;;;;4.47;4.13;;;20.80;90.70;;;;;;5017318;28;20441;-86
2022/11/11 11:28:12;;;;;;;4.27;3.87;;;21.40;89.10;;;;;;4974820;28;20475;-85
2022/11/11 11:34:42;;;;;;;7.00;4.83;;;21.60;89.70;;;;;;4766741;30;20500;-84
2022/11/11 11:40:01;;;;;;;5.13;4.17;;;21.70;88.50;;;;;;4840880;29;20463;-85
2022/11/11 11:43:05;;;;;;;6.47;5.60;;;21.70;87.20;;;;;;4887246;29;20499;-85
2022/11/11 11:46:00;;;;;;;4.37;3.97;;;21.60;86.90;;;;;;4956415;28;20457;-85
2022/11/11 11:52:12;;;;;;;5.10;4.70;;;21.70;87.20;;;;;;4992832;28;20499;-85
2022/11/11 11:54:52;;;;;;;5.60;4.70;;;21.70;86.70;;;;;;5041063;28;20544;-84
2022/11/11 11:57:39;;;;;;;5.27;4.87;;;21.90;86.60;;;;;;5040993;28;20454;-84
2022/11/11 12:00:14;;;;;;;8.87;4.73;;;22.20;86.60;;;;;;5041111;28;20482;-85
2022/11/11 12:03:16;;;;;;;5.23;4.80;;;22.60;85.60;;;;;;5039914;28;20484;-84
2022/11/11 12:05:48;;;;;;;6.23;4.73;;;22.90;83.80;;;;;;5042738;28;20944;-83
2022/11/11 12:24:56;;;;;;;6.13;4.60;;;24.40;78.10;;;;;;4972283;28;20479;-88
2022/11/11 12:31:27;;;;;;;5.60;5.10;;;25.10;74.70;;;;;;4973857;28;20463;-86
2022/11/11 12:38:01;;;;;;;4.57;4.20;;;26.20;71.50;;;;;;4909460;29;20481;-86
2022/11/11 12:40:47;;;;;;;4.67;4.37;;;26.90;70.70;;;;;;4915374;29;20456;-86
2022/11/11 12:43:56;;;;;;;3.83;3.50;;;27.10;67.60;;;;;;4935099;29;20448;-86
2022/11/11 12:49:58;;;;;;;4.83;4.50;;;26.30;66.50;;;;;;4961217;28;20510;-86
2022/11/11 12:52:50;;;;;;;4.63;4.23;;;25.60;67.60;;;;;;5045046;28;20534;-86
2022/11/11 12:55:24;;;;;;;6.13;4.87;;;25.10;68.70;;;;;;5054446;28;20991;-86
2022/11/11 12:58:22;;;;;;;6.20;4.00;;;24.70;69.30;;;;;;5054654;28;20559;-86
2022/11/11 13:01:03;;;;;;;4.87;4.37;;;24.50;69.50;;;;;;5051797;28;20468;-85
2022/11/11 13:03:53;;;;;;;5.30;4.90;;;24.40;71.20;;;;;;5054312;28;20464;-86
2022/11/11 13:06:59;;;;;;;4.00;3.70;;;24.40;70.30;;;;;;5054444;28;20513;-86
2022/11/11 13:09:50;;;;;;;5.27;4.77;;;24.20;70.30;;;;;;5054129;28;20483;-86
2022/11/11 13:12:24;;;;;;;6.03;4.17;;;24.10;70.80;;;;;;5054212;28;20495;-86
2022/11/11 13:15:09;;;;;;;6.47;4.73;;;23.70;71.10;;;;;;5054572;28;20455;-86
2022/11/11 13:17:44;;;;;;;4.93;4.43;;;23.40;72.80;;;;;;5054196;28;20469;-86
2022/11/11 13:20:23;;;;;;;5.90;4.20;;;23.00;73.70;;;;;;5054587;28;20807;-86
2022/11/11 13:22:51;;;;;;;5.60;5.10;;;22.40;75.30;;;;;;5054585;28;20538;-86
2022/11/11 13:25:31;;;;;;;7.63;5.30;;;21.80;77.30;;;;;;5055385;28;20453;-86
2022/11/11 13:28:04;;;;;;;5.40;4.83;;;21.30;80.00;;;;;;5054988;28;21039;-86
2022/11/11 13:30:47;;;;;;;7.73;5.37;;;20.80;80.10;;;;;;5055434;28;20456;-86
2022/11/11 13:33:17;;;;;;;6.13;4.87;;;20.50;82.20;;;;;;5055037;28;20513;-86
2022/11/11 13:35:49;;;;;;;6.67;5.03;;;20.20;83.50;;;;;;5054326;28;20460;-86
2022/11/11 13:38:28;;;;;;;6.97;4.50;;;20.20;84.90;;;;;;5053959;28;20981;-86
2022/11/11 13:41:02;;;;;;;5.80;5.30;;;20.20;85.30;;;;;;5054238;28;20570;-86
2022/11/11 13:43:33;;;;;;;6.40;5.80;;;20.30;84.90;;;;;;5054250;28;20463;-86
2022/11/11 13:46:06;;;;;;;5.57;5.00;;;20.30;84.80;;;;;;5054277;28;20475;-86
2022/11/11 13:48:40;;;;;;;11.57;5.33;;;20.30;85.80;;;;;;5054573;28;20494;-86
2022/11/11 13:51:23;;;;;;;5.03;4.60;;;20.30;86.40;;;;;;5054179;28;20471;-86
2022/11/11 13:53:54;;;;;;;5.30;4.80;;;20.30;86.30;;;;;;5054201;28;20822;-86
2022/11/11 13:56:43;;;;;;;13.90;5.50;;;20.20;85.30;;;;;;5054277;28;21028;-86
2022/11/11 13:59:25;;;;;;;5.73;5.17;;;20.20;85.50;;;;;;5053900;28;20460;-86
2022/11/11 14:02:17;;;;;;;6.50;4.90;;;20.10;84.80;;;;;;5054423;28;20455;-86
2022/11/11 14:05:22;;;;;;;4.87;4.30;;;19.90;85.10;;;;;;5053749;28;20448;-86
2022/11/11 14:07:57;;;;;;;6.90;5.57;;;19.80;85.60;;;;;;5051567;28;20484;-86
2022/11/11 14:10:52;;;;;;;5.07;4.60;;;19.70;86.20;;;;;;5054032;28;20467;-86
2022/11/11 14:13:41;;;;;;;6.27;5.67;;;19.60;87.30;;;;;;5054628;28;20484;-86
2022/11/11 14:19:34;;;;;;;6.97;6.37;;;19.30;87.80;;;;;;5051038;28;20478;-86
2022/11/11 14:22:31;;;;;;;7.43;5.47;;;19.20;88.50;;;;;;5054216;28;20478;-86
2022/11/11 14:25:39;;;;;;;10.20;6.00;;;19.00;89.00;;;;;;5054065;28;20847;-86
2022/11/11 14:28:26;;;;;;;6.13;5.53;;;19.00;89.80;;;;;;5052714;28;20995;-86
2022/11/11 14:31:43;;;;;;;7.30;5.77;;;18.90;90.00;;;;;;5053263;28;20450;-86
2022/11/11 14:37:33;;;;;;;10.97;6.47;;;18.40;90.60;;;;;;5051656;28;20507;-86
2022/11/11 14:40:01;;;;;;;6.40;5.80;;;18.20;90.90;;;;;;5053412;28;20519;-86
2022/11/11 14:43:30;;;;;;;5.30;4.90;;;18.00;91.50;;;;;;5052898;28;20453;-86
2022/11/11 14:46:07;;;;;;;5.40;4.93;;;18.00;92.00;;;;;;5052376;28;20455;-86
2022/11/11 14:48:58;;;;;;;5.23;4.67;;;17.90;92.20;;;;;;5052600;28;20470;-86
2022/11/11 14:51:39;;;;;;;7.13;5.00;;;17.90;92.20;;;;;;5052967;28;20457;-86
2022/11/11 14:54:16;;;;;;;5.40;5.00;;;17.80;92.00;;;;;;5053272;28;20534;-86
2022/11/11 14:56:55;;;;;;;4.70;4.30;;;17.70;91.70;;;;;;5053095;28;20484;-86
2022/11/11 14:59:28;;;;;;;5.47;4.47;;;17.60;92.00;;;;;;5055437;28;20438;-86
2022/11/11 15:02:18;;;;;;;5.00;4.50;;;17.50;92.40;;;;;;5053987;28;20518;-86
2022/11/11 15:04:48;;;;;;;5.60;4.07;;;17.30;92.70;;;;;;5054226;28;20766;-85
2022/11/11 15:07:37;;;;;;;4.40;4.00;;;17.20;93.20;;;;;;5054173;28;20474;-86
2022/11/11 15:10:30;;;;;;;4.50;4.20;;;17.10;93.50;;;;;;5045031;28;20464;-86
2022/11/11 15:13:29;;;;;;;4.67;4.27;;;16.90;94.40;;;;;;5054346;28;20492;-85
2022/11/11 15:16:18;;;;;;;9.27;4.63;;;16.70;95.00;;;;;;5053237;28;20519;-86
2022/11/11 15:19:13;;;;;;;5.00;4.60;;;16.40;95.20;;;;;;5052511;28;20480;-86
2022/11/11 15:22:00;;;;;;;5.77;5.23;;;16.20;95.60;;;;;;5053555;28;20511;-85
2022/11/11 15:24:55;;;;;;;5.50;4.57;;;16.00;96.10;;;;;;5054006;28;20535;-85
2022/11/11 15:27:37;;;;;;;5.53;5.00;;;15.80;96.60;;;;;;5053513;28;20993;-86
2022/11/11 15:30:16;;;;;;;4.57;4.13;;;15.60;97.10;;;;;;5053658;28;20450;-85
2022/11/11 15:33:02;;;;;;;5.87;4.90;;;15.30;97.60;;;;;;5053700;28;20488;-85
2022/11/11 15:35:41;;;;;;;6.70;4.83;;;15.20;98.30;;;;;;5054011;28;20452;-85
2022/11/11 15:38:12;;;;;;;9.50;5.13;;;14.90;98.80;;;;;;5036330;28;20468;-86
2022/11/11 15:40:53;;;;;;;6.50;4.70;;;14.80;99.40;;;;;;5054384;28;20460;-86
2022/11/11 15:43:34;;;;;;;13.17;6.00;;;14.60;99.90;;;;;;5047501;28;20947;-86
2022/11/11 15:46:07;;;;;;;6.87;5.57;;;14.40;99.90;;;;;;5037739;28;20441;-86
2022/11/11 15:51:40;;;;;;;7.77;6.20;;;14.00;99.90;;;;;;5040900;28;20452;-87
2022/11/11 16:03:09;;;;;;;11.30;6.70;;;13.30;99.90;;;;;;5034553;28;21003;-85
2022/11/11 16:05:43;;;;;;;10.47;7.80;;;13.10;99.90;;;;;;5032087;28;20444;-86
2022/11/11 16:08:19;;;;;;;10.07;7.80;;;13.00;99.90;;;;;;5030642;28;20472;-86
2022/11/11 16:10:55;;;;;;;9.20;7.70;;;12.80;99.90;;;;;;5039131;28;20831;-84
2022/11/11 16:13:33;;;;;;;8.93;8.10;;;12.70;99.90;;;;;;5036806;28;21039;-86
2022/11/11 16:16:09;;;;;;;19.40;13.63;;;12.50;99.90;;;;;;5029701;28;20925;-86
2022/11/11 16:18:41;;;;;;;18.33;11.43;;;12.30;99.90;;;;;;5038492;28;20823;-86
2022/11/11 16:21:14;;;;;;;13.97;11.40;;;12.20;99.90;;;;;;5018873;28;20459;-85
2022/11/11 16:23:43;;;;;;;10.87;9.00;;;12.00;99.90;;;;;;5016552;28;20462;-85
2022/11/11 16:26:10;;;;;;;10.37;9.30;;;11.90;99.90;;;;;;5019448;28;20453;-86
2022/11/11 16:28:40;;;;;;;9.93;8.87;;;11.80;99.90;;;;;;5041432;28;20472;-85
2022/11/11 16:31:39;;;;;;;9.50;7.67;;;11.70;99.90;;;;;;5042853;28;20464;-85
2022/11/11 16:34:42;;;;;;;14.40;11.37;;;11.60;99.90;;;;;;4997997;28;20442;-85
2022/11/11 16:37:52;;;;;;;11.37;9.10;;;11.50;99.90;;;;;;5036079;28;20476;-86
2022/11/11 16:40:49;;;;;;;9.60;7.80;;;11.40;99.90;;;;;;5036376;28;20542;-86
2022/11/11 16:43:57;;;;;;;9.40;8.30;;;11.20;99.90;;;;;;5020738;28;20527;-88
2022/11/11 16:49:30;;;;;;;14.93;9.00;;;11.10;99.90;;;;;;5069236;22;20568;-86
2022/11/11 16:55:47;;;;;;;12.40;8.43;;;10.90;99.90;;;;;;4987623;28;20537;-85
2022/11/11 16:58:52;;;;;;;11.63;8.10;;;10.90;99.90;;;;;;5037780;28;20819;-87
2022/11/11 17:01:28;;;;;;;13.37;8.93;;;10.80;99.90;;;;;;5035527;28;20516;-87
2022/11/11 17:03:59;;;;;;;9.55;8.55;;;10.70;99.90;;;;;;5039177;28;20583;-87
2022/11/11 17:06:47;;;;;;;14.17;10.20;;;10.70;99.90;;;;;;5055746;28;20208;-87
2022/11/11 17:09:38;;;;;;;10.15;8.10;;;10.60;99.90;;;;;;5054503;28;20489;-86
2022/11/11 17:12:29;;;;;;;13.97;10.67;;;10.60;99.90;;;;;;5040702;28;20783;-86
2022/11/11 17:14:56;;;;;;;20.00;17.20;;;10.50;99.90;;;;;;5046080;28;20458;-86
2022/11/11 17:17:23;;;;;;;21.73;19.40;;;10.50;99.90;;;;;;5063826;28;20557;-85
2022/11/11 17:22:53;;;;;;;22.03;18.07;;;10.30;99.90;;;;;;5057772;28;20514;-86
2022/11/11 17:25:22;;;;;;;22.40;19.97;;;10.30;99.90;;;;;;5058925;28;20926;-87
2022/11/11 17:27:53;;;;;;;22.80;20.50;;;10.20;99.90;;;;;;5057536;28;20502;-87
2022/11/11 17:30:20;;;;;;;17.53;15.80;;;10.20;99.90;;;;;;5057627;28;20907;-86
2022/11/11 17:32:48;;;;;;;16.37;13.50;;;10.10;99.90;;;;;;5057745;28;20589;-85
2022/11/11 17:35:15;;;;;;;17.97;16.07;;;10.10;99.90;;;;;;5057222;28;20478;-86
2022/11/11 17:50:48;;;;;;;22.83;17.27;;;9.90;99.90;;;;;;5053741;28;20215;-86
2022/11/11 17:53:16;;;;;;;51.55;33.10;;;9.80;99.90;;;;;;5058956;28;20218;-85
2022/11/11 17:55:43;;;;;;;48.70;35.50;;;9.80;99.90;;;;;;5058235;28;20212;-85
2022/11/11 17:58:12;;;;;;;27.08;21.05;;;9.80;99.90;;;;;;5059277;28;20254;-85
2022/11/11 18:00:39;;;;;;;50.08;37.70;;;9.70;99.90;;;;;;5059329;28;20213;-84
2022/11/11 18:03:07;;;;;;;25.90;22.80;;;9.70;99.90;;;;;;5059265;28;20210;-85
2022/11/11 18:05:34;;;;;;;15.82;14.43;;;9.70;99.90;;;;;;5060374;28;20729;-84
2022/11/11 18:08:32;;;;;;;21.33;18.15;;;9.70;99.90;;;;;;5103438;22;20250;-90
2022/11/11 18:11:20;;;;;;;23.73;18.52;;;9.60;99.90;;;;;;5051506;28;20210;-87
2022/11/11 18:13:46;;;;;;;21.67;17.10;;;9.60;99.90;;;;;;5007375;28;20232;-86
2022/11/11 18:16:16;;;;;;;30.90;24.05;;;9.50;99.90;;;;;;5033654;28;20212;-86
2022/11/11 18:18:48;;;;;;;20.58;17.30;;;9.50;99.90;;;;;;5033771;28;20235;-86
2022/11/11 18:21:15;;;;;;;42.25;28.20;;;9.40;99.90;;;;;;5034977;28;20209;-86
2022/11/11 18:23:42;;;;;;;63.05;41.67;;;9.40;99.90;;;;;;5035398;28;20552;-86
2022/11/11 18:26:22;;;;;;;58.92;38.30;;;9.40;99.90;;;;;;5036133;28;20638;-86
2022/11/11 18:28:49;;;;;;;59.88;40.28;;;9.30;99.90;;;;;;5035849;28;20254;-86
2022/11/11 18:31:43;;;;;;;41.25;29.15;;;9.30;99.90;;;;;;5033463;28;20215;-90
2022/11/11 18:34:11;;;;;;;40.67;28.67;;;9.30;99.90;;;;;;5034168;28;20621;-89
2022/11/11 18:36:38;;;;;;;26.92;17.60;;;9.30;99.90;;;;;;5034043;28;20214;-86
2022/11/11 18:39:05;;;;;;;29.58;24.42;;;9.20;99.90;;;;;;5034163;28;20720;-86
2022/11/11 18:41:31;;;;;;;42.05;29.75;;;9.20;99.90;;;;;;5033460;28;20205;-86
2022/11/11 18:43:58;;;;;;;42.58;29.30;;;9.20;99.90;;;;;;5033779;28;20214;-85
2022/11/11 18:46:29;;;;;;;44.03;32.75;;;9.20;99.90;;;;;;5033234;28;20209;-86
2022/11/11 18:48:57;;;;;;;43.90;32.20;;;9.10;99.90;;;;;;5034359;28;20227;-85
2022/11/11 18:51:27;;;;;;;30.98;26.15;;;9.10;99.90;;;;;;5028257;28;20231;-85
2022/11/11 18:53:54;;;;;;;20.40;17.63;;;9.00;99.90;;;;;;5028078;28;20223;-85
2022/11/11 18:56:32;;;;;;;24.75;18.65;;;9.00;99.90;;;;;;5035598;28;20213;-85
2022/11/11 19:03:16;;;;;;;17.23;14.88;;;8.90;99.90;;;;;;4976163;28;20208;-85
2022/11/11 19:13:40;;;;;;;13.90;12.60;;;8.70;99.90;;;;;;4910833;29;20305;-86
2022/11/11 21:01:48;;;;;;;13.45;11.00;;;8.20;99.90;;;;;;4779594;29;20207;-89
2022/11/11 21:04:15;;;;;;;10.63;9.63;;;8.20;99.90;;;;;;4798811;29;20695;-86
2022/11/11 21:06:42;;;;;;;13.40;11.50;;;8.10;99.90;;;;;;4900034;29;20231;-86
2022/11/11 21:09:11;;;;;;;13.82;12.20;;;8.10;99.90;;;;;;4975801;28;20237;-87
2022/11/11 21:11:38;;;;;;;14.18;12.77;;;8.10;99.90;;;;;;5039445;28;20264;-87
2022/11/11 21:14:06;;;;;;;15.95;13.18;;;8.10;99.90;;;;;;5036027;28;20229;-86
2022/11/11 21:16:33;;;;;;;14.38;12.60;;;8.10;99.90;;;;;;5037303;28;20210;-85
2022/11/11 21:19:02;;;;;;;15.40;13.90;;;8.10;99.90;;;;;;5039251;28;20305;-86
2022/11/11 21:21:31;;;;;;;13.20;11.90;;;8.00;99.90;;;;;;5036702;28;20293;-86
2022/11/11 21:24:02;;;;;;;14.30;12.73;;;8.00;99.90;;;;;;5036210;28;20201;-87
2022/11/11 21:26:32;;;;;;;13.43;12.00;;;8.00;99.90;;;;;;5029047;28;20207;-86
2022/11/11 21:28:59;;;;;;;14.50;13.20;;;8.00;99.90;;;;;;5026835;28;20215;-86
2022/11/11 21:31:28;;;;;;;12.90;11.70;;;8.00;99.90;;;;;;5038057;28;20213;-86
2022/11/11 21:33:56;;;;;;;14.07;12.02;;;8.00;99.90;;;;;;5040416;28;20240;-86
2022/11/11 21:36:29;;;;;;;13.55;12.25;;;8.00;99.90;;;;;;5038405;28;20225;-86
2022/11/11 21:39:04;;;;;;;15.18;13.02;;;8.00;99.90;;;;;;5040261;28;20237;-86
2022/11/11 21:41:35;;;;;;;13.98;12.45;;;7.90;99.90;;;;;;5030933;28;20203;-87
2022/11/11 21:44:03;;;;;;;14.60;13.27;;;7.90;99.90;;;;;;5029258;28;20590;-86
2022/11/11 21:46:33;;;;;;;12.82;11.48;;;7.90;99.90;;;;;;5021045;28;20205;-85
2022/11/11 21:49:01;;;;;;;13.32;12.13;;;7.90;99.90;;;;;;5031228;28;20280;-86
2022/11/11 21:51:31;;;;;;;12.50;11.30;;;7.90;99.90;;;;;;5038670;28;20263;-88
2022/11/11 21:54:03;;;;;;;13.15;11.15;;;7.90;99.90;;;;;;5040119;28;20230;-87
2022/11/11 21:56:38;;;;;;;12.05;10.95;;;7.90;99.90;;;;;;5038291;28;20273;-86
2022/11/11 21:59:07;;;;;;;13.00;11.68;;;8.00;99.90;;;;;;5029665;28;20227;-87
2022/11/11 22:01:36;;;;;;;11.98;10.80;;;8.00;99.90;;;;;;5032200;28;20703;-87
2022/11/11 22:04:16;;;;;;;11.93;10.82;;;8.00;99.90;;;;;;5030073;28;20264;-87
2022/11/11 22:06:47;;;;;;;12.70;11.50;;;8.00;99.90;;;;;;5032079;28;20206;-87
2022/11/11 22:09:14;;;;;;;15.20;12.38;;;7.90;99.90;;;;;;5030000;28;20219;-87
2022/11/11 22:11:41;;;;;;;15.32;13.55;;;8.00;99.90;;;;;;5032486;28;20210;-88
2022/11/11 22:14:07;;;;;;;17.65;14.73;;;7.90;99.90;;;;;;5032116;28;20218;-86
2022/11/11 22:16:36;;;;;;;21.10;17.10;;;7.90;99.90;;;;;;5031514;28;20213;-87
2022/11/11 22:19:05;;;;;;;19.85;18.02;;;7.90;99.90;;;;;;5031284;28;20218;-85
2022/11/11 22:21:38;;;;;;;17.48;15.88;;;7.90;99.90;;;;;;5028036;28;20213;-86
2022/11/11 22:27:48;;;;;;;16.45;12.73;;;7.90;99.90;;;;;;5018180;28;20206;-87
2022/11/11 22:30:51;;;;;;;;;;;;;;;;;;;;;
2022/11/11 22:40:24;;;;;;;14.27;13.07;;;7.80;99.90;;;;;;4916961;29;20206;-86
2022/11/11 22:49:26;;;;;;;15.20;12.77;;;7.70;99.90;;;;;;5034457;28;20454;-86
2022/11/11 22:55:01;;;;;;;13.60;12.30;;;7.70;99.90;;;;;;4974987;28;20232;-86
2022/11/11 22:58:02;;;;;;;13.00;11.70;;;7.60;99.90;;;;;;4958530;28;20239;-86
2022/11/11 23:01:07;;;;;;;12.63;11.43;;;7.60;99.90;;;;;;5034596;28;20244;-86
2022/11/11 23:04:10;;;;;;;12.85;11.02;;;7.60;99.90;;;;;;5015879;28;20194;-86
2022/11/11 23:06:59;;;;;;;11.52;10.45;;;7.50;99.90;;;;;;5035249;28;20206;-87
2022/11/11 23:09:58;;;;;;;;;;;;;;;;;;;;;
2022/11/11 23:16:17;;;;;;;12.75;10.85;;;7.50;99.90;;;;;;5014835;28;20748;-86
2022/11/11 23:22:25;;;;;;;12.73;11.52;;;7.40;99.90;;;;;;5001797;28;20202;-86
2022/11/11 23:25:20;;;;;;;11.82;10.73;;;7.40;99.90;;;;;;5038494;28;20212;-86
2022/11/11 23:30:50;;;;;;;13.77;11.80;;;7.40;99.90;;;;;;4923116;28;20216;-86
2022/11/11 23:36:45;;;;;;;15.25;11.60;;;7.30;99.90;;;;;;5035778;28;20198;-86
2022/11/11 23:39:13;;;;;;;14.15;11.70;;;7.30;99.90;;;;;;5040116;28;20226;-86
2022/11/11 23:41:49;;;;;;;15.70;12.57;;;7.20;99.90;;;;;;5040380;28;20234;-86